createdAt,value
2018-09-13T00:02:20.590Z,20.50
2018-09-13T00:04:49.379Z,20.50
2018-09-13T00:07:18.767Z,20.50
2018-09-13T00:09:47.561Z,20.40
2018-09-13T00:12:16.342Z,20.40
2018-09-13T00:14:45.146Z,20.40
2018-09-13T00:17:13.934Z,20.40
2018-09-13T00:19:43.334Z,20.30
2018-09-13T00:22:12.140Z,20.30
2018-09-13T00:24:40.954Z,20.30
2018-09-13T00:27:09.757Z,20.30
2018-09-13T00:29:38.674Z,20.30
2018-09-13T00:32:07.477Z,20.20
2018-09-13T00:34:36.282Z,20.20
2018-09-13T00:37:05.087Z,20.20
2018-09-13T00:39:33.899Z,20.10
2018-09-13T00:42:02.715Z,20.10
2018-09-13T00:44:31.524Z,20.10
2018-09-13T00:47:00.318Z,20.00
2018-09-13T00:49:29.123Z,20.00
2018-09-13T00:51:58.276Z,20.00
2018-09-13T00:54:27.061Z,19.90
2018-09-13T00:56:55.873Z,19.90
2018-09-13T00:59:24.698Z,19.40
2018-09-13T01:01:53.490Z,19.90
2018-09-13T01:04:22.314Z,19.80
2018-09-13T01:06:51.124Z,19.80
2018-09-13T01:09:19.934Z,19.80
2018-09-13T01:11:48.718Z,19.80
2018-09-13T01:14:18.016Z,19.80
2018-09-13T01:16:46.827Z,19.70
2018-09-13T01:19:15.615Z,19.70
2018-09-13T01:21:44.978Z,19.70
2018-09-13T01:24:13.763Z,19.70
2018-09-13T01:26:42.543Z,19.60
2018-09-13T01:29:11.340Z,19.60
2018-09-13T01:31:40.183Z,19.60
2018-09-13T01:34:08.985Z,19.60
2018-09-13T01:36:38.005Z,19.60
2018-09-13T01:39:08.841Z,19.60
2018-09-13T01:41:37.826Z,19.60
2018-09-13T01:44:06.722Z,19.60
2018-09-13T01:46:35.554Z,19.60
2018-09-13T01:49:04.461Z,19.60
2018-09-13T01:51:33.278Z,19.60
2018-09-13T01:54:02.122Z,19.60
2018-09-13T01:56:30.964Z,19.60
2018-09-13T01:59:00.377Z,19.50
2018-09-13T02:01:29.190Z,19.50
2018-09-13T02:03:57.967Z,19.50
2018-09-13T02:06:26.779Z,19.50
2018-09-13T02:08:55.590Z,19.50
2018-09-13T02:11:24.415Z,19.50
2018-09-13T02:13:53.251Z,19.50
2018-09-13T02:16:28.731Z,19.50
2018-09-13T02:18:57.858Z,19.50
2018-09-13T02:21:26.675Z,19.50
2018-09-13T02:23:55.925Z,19.50
2018-09-13T02:26:24.746Z,19.50
2018-09-13T02:28:53.522Z,19.40
2018-09-13T02:31:22.404Z,19.50
2018-09-13T02:33:51.203Z,19.40
2018-09-13T02:36:19.979Z,19.50
2018-09-13T02:38:48.789Z,19.40
2018-09-13T02:41:17.738Z,19.40
2018-09-13T02:43:46.542Z,19.40
2018-09-13T02:46:15.336Z,19.40
2018-09-13T02:48:44.443Z,19.40
2018-09-13T02:51:13.230Z,19.40
2018-09-13T02:53:42.014Z,19.40
2018-09-13T02:56:10.809Z,19.30
2018-09-13T02:58:39.620Z,19.30
2018-09-13T03:01:08.397Z,19.30
2018-09-13T03:03:37.619Z,19.30
2018-09-13T03:06:06.409Z,19.30
2018-09-13T03:08:35.219Z,19.30
2018-09-13T03:11:04.062Z,19.30
2018-09-13T03:13:32.847Z,19.20
2018-09-13T03:16:01.754Z,19.20
2018-09-13T03:18:30.547Z,19.20
2018-09-13T03:20:59.346Z,19.20
2018-09-13T03:23:28.150Z,19.20
2018-09-13T03:25:57.610Z,19.20
2018-09-13T03:28:26.402Z,19.20
2018-09-13T03:30:55.199Z,19.20
2018-09-13T03:33:24.004Z,19.10
2018-09-13T03:35:52.813Z,19.10
2018-09-13T03:38:21.605Z,19.10
2018-09-13T03:40:50.448Z,19.10
2018-09-13T03:43:26.103Z,19.00
2018-09-13T03:45:55.402Z,19.00
2018-09-13T03:48:24.207Z,19.00
2018-09-13T03:50:53.079Z,19.00
2018-09-13T03:53:21.876Z,19.00
2018-09-13T03:55:50.685Z,18.90
2018-09-13T03:58:19.494Z,18.90
2018-09-13T04:00:48.338Z,18.90
2018-09-13T04:03:17.408Z,18.90
2018-09-13T04:05:46.151Z,18.90
2018-09-13T04:08:15.289Z,18.80
2018-09-13T04:10:44.105Z,18.80
2018-09-13T04:13:12.938Z,18.80
2018-09-13T04:15:41.743Z,18.70
2018-09-13T04:18:10.534Z,18.70
2018-09-13T04:20:39.391Z,18.70
2018-09-13T04:23:08.195Z,18.70
2018-09-13T04:25:37.002Z,18.60
2018-09-13T04:28:06.243Z,18.60
2018-09-13T04:30:35.327Z,18.50
2018-09-13T04:33:04.120Z,18.50
2018-09-13T04:35:32.973Z,18.50
2018-09-13T04:38:01.703Z,18.40
2018-09-13T04:40:30.536Z,18.40
2018-09-13T04:42:59.343Z,18.40
2018-09-13T04:45:28.138Z,18.40
2018-09-13T04:47:56.927Z,18.40
2018-09-13T04:50:25.716Z,18.30
2018-09-13T04:52:54.783Z,18.30
2018-09-13T04:55:23.581Z,18.30
2018-09-13T04:57:52.375Z,18.30
2018-09-13T05:00:21.229Z,18.30
2018-09-13T05:02:49.975Z,18.30
2018-09-13T05:05:18.792Z,18.30
2018-09-13T05:07:47.639Z,18.30
2018-09-13T05:10:16.438Z,18.30
2018-09-13T05:12:45.252Z,18.30
2018-09-13T05:15:14.558Z,18.20
2018-09-13T05:17:43.376Z,18.30
2018-09-13T05:20:12.163Z,18.20
2018-09-13T05:22:40.976Z,18.20
2018-09-13T05:25:09.790Z,18.20
2018-09-13T05:27:38.586Z,18.20
2018-09-13T05:30:08.883Z,18.20
2018-09-13T05:32:37.694Z,18.20
2018-09-13T05:35:08.685Z,18.20
2018-09-13T05:37:37.621Z,18.20
2018-09-13T05:40:07.558Z,18.20
2018-09-13T05:42:36.373Z,18.20
2018-09-13T05:45:05.337Z,18.20
2018-09-13T05:47:34.139Z,18.20
2018-09-13T05:50:02.951Z,18.20
2018-09-13T05:52:31.789Z,18.10
2018-09-13T05:55:00.600Z,18.10
2018-09-13T05:57:29.414Z,18.10
2018-09-13T05:59:58.697Z,18.10
2018-09-13T06:02:27.506Z,18.10
2018-09-13T06:04:56.309Z,18.10
2018-09-13T06:07:25.112Z,18.10
2018-09-13T06:09:53.930Z,18.10
2018-09-13T06:12:22.737Z,18.10
2018-09-13T06:14:51.765Z,18.20
2018-09-13T06:17:20.554Z,18.20
2018-09-13T06:19:49.464Z,18.20
2018-09-13T06:22:18.608Z,18.20
2018-09-13T06:24:47.410Z,18.20
2018-09-13T06:27:16.295Z,18.30
2018-09-13T06:29:45.121Z,18.30
2018-09-13T06:32:14.402Z,18.30
2018-09-13T06:34:43.269Z,18.40
2018-09-13T06:37:12.088Z,18.40
2018-09-13T06:39:40.924Z,18.40
2018-09-13T06:42:09.729Z,18.40
2018-09-13T06:44:45.488Z,18.40
2018-09-13T06:47:14.295Z,18.40
2018-09-13T06:49:43.082Z,18.40
2018-09-13T06:52:11.894Z,18.50
2018-09-13T06:54:40.729Z,18.50
2018-09-13T06:57:09.552Z,18.50
2018-09-13T06:59:38.345Z,18.50
2018-09-13T07:02:07.311Z,18.60
2018-09-13T07:04:36.103Z,18.60
2018-09-13T07:07:05.713Z,18.70
2018-09-13T07:09:34.502Z,18.70
2018-09-13T07:12:03.335Z,18.70
2018-09-13T07:14:32.162Z,18.80
2018-09-13T07:17:00.958Z,18.80
2018-09-13T07:19:29.781Z,18.80
2018-09-13T07:21:58.879Z,18.90
2018-09-13T07:24:28.303Z,18.90
2018-09-13T07:26:57.113Z,18.90
2018-09-13T07:29:26.331Z,18.90
2018-09-13T07:31:55.175Z,18.90
2018-09-13T07:34:24.430Z,18.90
2018-09-13T07:36:53.331Z,18.90
2018-09-13T07:39:22.086Z,18.90
2018-09-13T07:41:50.966Z,18.80
2018-09-13T07:44:19.806Z,18.90
2018-09-13T07:46:48.602Z,18.90
2018-09-13T07:49:17.426Z,18.90
2018-09-13T07:51:46.469Z,18.90
2018-09-13T07:54:15.268Z,18.90
2018-09-13T07:56:44.055Z,18.90
2018-09-13T07:59:12.837Z,19.00
2018-09-13T08:01:41.647Z,18.90
2018-09-13T08:04:10.468Z,19.00
2018-09-13T08:06:39.274Z,19.00
2018-09-13T08:09:11.265Z,19.00
2018-09-13T08:11:40.478Z,19.00
2018-09-13T08:14:09.291Z,19.00
2018-09-13T08:16:38.088Z,19.10
2018-09-13T08:19:06.882Z,19.00
2018-09-13T08:21:35.763Z,19.10
2018-09-13T08:24:04.557Z,19.10
2018-09-13T08:26:33.397Z,19.10
2018-09-13T08:29:02.206Z,19.20
2018-09-13T08:31:31.013Z,19.20
2018-09-13T08:34:00.188Z,19.30
2018-09-13T08:36:29.393Z,19.40
2018-09-13T08:38:58.262Z,19.50
2018-09-13T08:41:27.150Z,19.50
2018-09-13T08:43:56.909Z,19.60
2018-09-13T08:46:25.746Z,19.60
2018-09-13T08:48:54.567Z,19.60
2018-09-13T08:51:23.371Z,19.70
2018-09-13T08:53:52.165Z,19.70
2018-09-13T08:56:21.236Z,19.70
2018-09-13T08:58:50.216Z,19.70
2018-09-13T09:01:19.033Z,19.80
2018-09-13T09:03:47.841Z,19.80
2018-09-13T09:06:16.651Z,19.80
2018-09-13T09:08:45.461Z,19.80
2018-09-13T09:11:14.275Z,19.80
2018-09-13T09:13:43.058Z,19.80
2018-09-13T09:16:11.888Z,19.80
2018-09-13T09:18:41.116Z,19.90
2018-09-13T09:21:09.816Z,19.90
2018-09-13T09:23:38.613Z,19.90
2018-09-13T09:26:07.549Z,19.90
2018-09-13T09:28:36.350Z,19.90
2018-09-13T09:31:05.183Z,19.90
2018-09-13T09:33:33.983Z,19.80
2018-09-13T09:36:02.792Z,19.80
2018-09-13T09:38:32.318Z,19.90
2018-09-13T09:41:01.423Z,19.90
2018-09-13T09:43:30.234Z,19.90
2018-09-13T09:45:59.107Z,19.90
2018-09-13T09:48:27.953Z,19.90
2018-09-13T09:50:56.825Z,19.90
2018-09-13T09:53:25.658Z,19.90
2018-09-13T09:55:54.473Z,19.90
2018-09-13T09:58:23.286Z,19.90
2018-09-13T10:00:58.007Z,19.90
2018-09-13T10:03:26.818Z,19.90
2018-09-13T10:05:55.646Z,19.90
2018-09-13T10:08:24.458Z,20.00
2018-09-13T10:10:53.315Z,20.00
2018-09-13T10:13:22.108Z,20.00
2018-09-13T10:15:56.190Z,20.00
2018-09-13T10:18:30.402Z,20.00
2018-09-13T10:21:04.888Z,20.10
2018-09-13T10:23:39.244Z,20.00
2018-09-13T10:26:13.349Z,20.10
2018-09-13T10:28:47.668Z,20.00
2018-09-13T10:31:21.777Z,20.00
2018-09-13T10:33:56.133Z,20.00
2018-09-13T10:36:30.766Z,20.00
2018-09-13T10:39:05.366Z,20.00
2018-09-13T10:41:39.498Z,20.10
2018-09-13T10:44:13.597Z,20.10
2018-09-13T10:46:42.445Z,20.10
2018-09-13T10:49:16.585Z,20.20
2018-09-13T10:51:51.398Z,20.20
2018-09-13T10:54:24.421Z,20.30
2018-09-13T10:56:53.275Z,20.40
2018-09-13T10:59:23.336Z,20.40
2018-09-13T11:01:52.265Z,20.50
2018-09-13T11:04:21.126Z,20.50
2018-09-13T11:06:49.926Z,20.60
2018-09-13T11:09:18.730Z,20.60
2018-09-13T11:11:47.959Z,20.60
2018-09-13T11:14:22.895Z,20.60
2018-09-13T11:16:51.741Z,20.70
2018-09-13T11:19:20.580Z,20.70
2018-09-13T11:21:49.459Z,20.70
2018-09-13T11:24:18.219Z,20.70
2018-09-13T11:26:47.048Z,20.70
2018-09-13T11:29:22.953Z,20.70
2018-09-13T11:31:51.754Z,20.80
2018-09-13T11:34:20.573Z,20.90
2018-09-13T11:36:49.667Z,21.00
2018-09-13T11:39:19.081Z,21.00
2018-09-13T11:41:47.974Z,21.10
2018-09-13T11:44:16.819Z,21.10
2018-09-13T11:46:45.658Z,21.20
2018-09-13T11:49:17.511Z,21.20
2018-09-13T11:51:47.006Z,21.20
2018-09-13T11:54:15.830Z,21.30
2018-09-13T11:56:44.746Z,21.30
2018-09-13T11:59:13.625Z,21.40
2018-09-13T12:01:42.452Z,21.40
2018-09-13T12:04:11.296Z,21.50
2018-09-13T12:06:40.415Z,21.50
2018-09-13T12:09:12.294Z,21.60
2018-09-13T12:11:41.779Z,21.60
2018-09-13T12:14:11.224Z,21.70
2018-09-13T12:16:39.883Z,21.80
2018-09-13T12:19:08.776Z,21.80
2018-09-13T12:21:37.591Z,21.80
2018-09-13T12:24:06.449Z,21.90
2018-09-13T12:26:35.328Z,21.90
2018-09-13T12:29:04.141Z,21.90
2018-09-13T12:31:32.944Z,21.90
2018-09-13T12:34:02.156Z,21.90
2018-09-13T12:36:30.982Z,21.90
2018-09-13T12:38:59.804Z,21.90
2018-09-13T12:41:28.938Z,21.90
2018-09-13T12:43:57.755Z,21.90
2018-09-13T12:46:26.553Z,21.90
2018-09-13T12:48:55.367Z,21.90
2018-09-13T12:51:24.186Z,21.90
2018-09-13T12:53:53.014Z,21.90
2018-09-13T12:56:23.258Z,22.00
2018-09-13T12:58:52.038Z,22.00
2018-09-13T13:01:20.890Z,22.00
2018-09-13T13:03:49.711Z,22.10
2018-09-13T13:06:18.535Z,22.10
2018-09-13T13:08:47.408Z,22.10
2018-09-13T13:11:16.178Z,22.10
2018-09-13T13:13:44.973Z,22.20
2018-09-13T13:16:13.791Z,22.20
2018-09-13T13:18:43.057Z,22.30
2018-09-13T13:21:11.853Z,22.30
2018-09-13T13:23:40.660Z,22.30
2018-09-13T13:26:10.834Z,22.30
2018-09-13T13:28:39.722Z,22.40
2018-09-13T13:31:08.521Z,22.40
2018-09-13T13:33:37.338Z,22.40
2018-09-13T13:36:06.176Z,22.40
2018-09-13T13:38:34.993Z,22.40
2018-09-13T13:41:04.008Z,22.50
2018-09-13T13:43:33.334Z,22.50
2018-09-13T13:46:02.134Z,22.50
2018-09-13T13:48:30.950Z,22.50
2018-09-13T13:50:59.790Z,22.50
2018-09-13T13:53:28.576Z,22.50
2018-09-13T13:55:57.558Z,22.50
2018-09-13T13:58:26.384Z,22.40
2018-09-13T14:00:55.206Z,22.40
2018-09-13T14:03:24.248Z,22.40
2018-09-13T14:05:53.098Z,22.40
2018-09-13T14:08:21.902Z,22.30
2018-09-13T14:10:50.733Z,22.40
2018-09-13T14:13:19.555Z,22.40
2018-09-13T14:15:48.360Z,22.30
2018-09-13T14:18:17.213Z,22.30
2018-09-13T14:20:46.345Z,22.30
2018-09-13T14:23:15.121Z,22.30
2018-09-13T14:25:44.381Z,22.30
2018-09-13T14:28:13.322Z,22.30
2018-09-13T14:30:42.182Z,22.20
2018-09-13T14:33:11.014Z,22.20
2018-09-13T14:35:39.868Z,22.20
2018-09-13T14:38:08.665Z,22.20
2018-09-13T14:40:37.486Z,22.20
2018-09-13T14:43:06.351Z,22.10
2018-09-13T14:45:35.749Z,22.10
2018-09-13T14:48:05.427Z,22.20
2018-09-13T14:50:34.294Z,22.10
2018-09-13T14:53:03.062Z,22.10
2018-09-13T14:55:31.907Z,22.10
2018-09-13T14:58:00.712Z,22.10
2018-09-13T15:00:29.508Z,22.10
2018-09-13T15:02:58.355Z,22.10
2018-09-13T15:05:27.158Z,22.10
2018-09-13T15:07:55.957Z,22.20
2018-09-13T15:10:25.142Z,22.20
2018-09-13T15:12:54.026Z,22.20
2018-09-13T15:15:22.798Z,22.20
2018-09-13T15:17:51.729Z,22.20
2018-09-13T15:20:20.542Z,22.20
2018-09-13T15:22:49.358Z,22.20
2018-09-13T15:25:18.179Z,22.20
2018-09-13T15:27:46.998Z,22.10
2018-09-13T15:30:15.808Z,22.10
2018-09-13T15:32:44.942Z,22.10
2018-09-13T15:35:13.760Z,22.00
2018-09-13T15:37:42.552Z,22.00
2018-09-13T15:40:11.368Z,22.00
2018-09-13T15:42:40.220Z,21.90
2018-09-13T15:45:09.087Z,21.90
2018-09-13T15:47:38.575Z,21.90
2018-09-13T15:50:08.314Z,21.80
2018-09-13T15:52:37.233Z,21.80
2018-09-13T15:55:06.410Z,21.70
2018-09-13T15:57:35.220Z,21.70
2018-09-13T16:00:04.207Z,21.70
2018-09-13T16:02:33.062Z,21.60
2018-09-13T16:05:01.883Z,21.60
2018-09-13T16:07:30.850Z,21.60
2018-09-13T16:09:59.687Z,21.60
2018-09-13T16:12:28.594Z,21.50
2018-09-13T16:14:57.354Z,21.50
2018-09-13T16:17:26.745Z,21.40
2018-09-13T16:19:55.579Z,21.40
2018-09-13T16:22:24.376Z,21.30
2018-09-13T16:24:53.177Z,21.30
2018-09-13T16:27:21.980Z,21.20
2018-09-13T16:29:50.778Z,21.10
2018-09-13T16:32:21.225Z,21.00
2018-09-13T16:34:50.600Z,21.00
2018-09-13T16:37:25.040Z,20.90
2018-09-13T16:40:04.891Z,20.70
2018-09-13T16:42:42.994Z,20.70
2018-09-13T16:45:12.247Z,20.50
2018-09-13T16:47:46.753Z,20.40
2018-09-13T16:50:15.501Z,20.30
2018-09-13T16:52:44.301Z,20.20
2018-09-13T16:55:13.379Z,20.10
2018-09-13T16:57:42.175Z,20.10
2018-09-13T17:00:11.044Z,20.00
2018-09-13T17:02:39.853Z,19.90
2018-09-13T17:05:08.907Z,19.80
2018-09-13T17:07:38.010Z,19.70
2018-09-13T17:10:07.508Z,19.70
2018-09-13T17:12:37.012Z,19.60
2018-09-13T17:15:05.937Z,19.60
2018-09-13T17:17:35.032Z,19.50
2018-09-13T17:20:04.006Z,19.50
2018-09-13T17:22:32.809Z,19.50
2018-09-13T17:25:01.671Z,19.40
2018-09-13T17:27:30.471Z,19.40
2018-09-13T17:29:59.419Z,19.40
2018-09-13T17:32:28.250Z,19.40
2018-09-13T17:34:57.079Z,19.30
2018-09-13T17:37:26.842Z,19.30
2018-09-13T17:39:55.875Z,19.30
2018-09-13T17:42:24.702Z,19.30
2018-09-13T17:44:53.555Z,19.20
2018-09-13T17:47:22.497Z,19.20
2018-09-13T17:49:51.749Z,19.20
2018-09-13T17:52:20.607Z,19.20
2018-09-13T17:54:49.425Z,19.20
2018-09-13T17:57:18.227Z,19.20
2018-09-13T17:59:47.078Z,19.20
2018-09-13T18:02:16.261Z,19.10
2018-09-13T18:04:45.079Z,19.10
2018-09-13T18:07:13.877Z,19.10
2018-09-13T18:09:42.727Z,19.10
2018-09-13T18:12:11.621Z,19.10
2018-09-13T18:14:40.478Z,19.10
2018-09-13T18:17:09.303Z,19.10
2018-09-13T18:19:38.103Z,19.10
2018-09-13T18:22:06.912Z,19.10
2018-09-13T18:24:36.015Z,19.10
2018-09-13T18:27:04.838Z,19.10
2018-09-13T18:29:33.655Z,19.10
2018-09-13T18:32:02.504Z,19.10
2018-09-13T18:34:31.326Z,19.10
2018-09-13T18:37:00.142Z,19.10
2018-09-13T18:39:29.029Z,19.10
2018-09-13T18:41:57.865Z,19.10
2018-09-13T18:44:26.691Z,19.00
2018-09-13T18:46:55.695Z,19.00
2018-09-13T18:49:24.490Z,19.00
2018-09-13T18:51:53.767Z,19.00
2018-09-13T18:54:22.611Z,19.00
2018-09-13T18:56:51.382Z,18.90
2018-09-13T18:59:20.223Z,18.90
2018-09-13T19:01:49.031Z,18.90
2018-09-13T19:04:17.865Z,18.80
2018-09-13T19:06:46.701Z,18.80
2018-09-13T19:09:15.950Z,18.80
2018-09-13T19:11:44.756Z,18.70
2018-09-13T19:14:13.582Z,18.80
2018-09-13T19:16:42.411Z,18.70
2018-09-13T19:19:11.242Z,18.70
2018-09-13T19:21:40.071Z,18.70
2018-09-13T19:24:08.957Z,18.70
2018-09-13T19:26:37.718Z,18.70
2018-09-13T19:29:06.578Z,18.70
2018-09-13T19:31:35.568Z,18.70
2018-09-13T19:34:04.406Z,18.70
2018-09-13T19:36:33.240Z,18.60
2018-09-13T19:39:02.231Z,18.70
2018-09-13T19:41:31.010Z,18.70
2018-09-13T19:43:59.824Z,18.70
2018-09-13T19:46:28.662Z,18.70
2018-09-13T19:48:57.467Z,18.60
2018-09-13T19:51:26.318Z,18.70
2018-09-13T19:53:56.087Z,18.70
2018-09-13T19:56:24.893Z,18.70
2018-09-13T19:58:53.722Z,18.70
2018-09-13T20:01:22.597Z,18.70
2018-09-13T20:03:51.470Z,18.70
2018-09-13T20:06:20.987Z,18.70
2018-09-13T20:08:49.877Z,18.70
2018-09-13T20:11:18.674Z,18.70
2018-09-13T20:13:47.633Z,18.70
2018-09-13T20:16:16.902Z,18.70
2018-09-13T20:18:46.034Z,18.70
2018-09-13T20:21:14.847Z,18.70
2018-09-13T20:23:43.660Z,18.70
2018-09-13T20:26:12.498Z,18.80
2018-09-13T20:28:41.440Z,18.70
2018-09-13T20:31:10.177Z,18.80
2018-09-13T20:33:38.981Z,18.80
2018-09-13T20:36:07.866Z,18.80
2018-09-13T20:38:36.797Z,18.80
2018-09-13T20:41:05.712Z,18.80
2018-09-13T20:43:37.470Z,18.80
2018-09-13T20:46:06.354Z,18.80
2018-09-13T20:48:35.175Z,18.80
2018-09-13T20:51:04.094Z,18.80
2018-09-13T20:53:32.926Z,18.80
2018-09-13T20:56:02.157Z,18.90
2018-09-13T20:58:30.966Z,18.90
2018-09-13T21:01:00.038Z,18.90
2018-09-13T21:03:28.860Z,18.90
2018-09-13T21:05:57.718Z,18.90
2018-09-13T21:08:26.586Z,18.90
2018-09-13T21:10:55.366Z,19.00
2018-09-13T21:13:24.236Z,19.00
2018-09-13T21:15:53.050Z,18.90
2018-09-13T21:18:21.862Z,19.00
2018-09-13T21:20:50.682Z,19.00
2018-09-13T21:23:19.761Z,19.00
2018-09-13T21:25:48.598Z,19.00
2018-09-13T21:28:17.397Z,19.00
2018-09-13T21:30:46.214Z,19.00
2018-09-13T21:33:15.114Z,19.00
2018-09-13T21:35:44.310Z,19.00
2018-09-13T21:38:13.243Z,18.90
2018-09-13T21:40:42.048Z,18.90
2018-09-13T21:43:10.981Z,19.00
2018-09-13T21:45:40.078Z,19.00
2018-09-13T21:48:08.879Z,19.00
2018-09-13T21:50:37.722Z,19.00
2018-09-13T21:53:06.546Z,18.90
2018-09-13T21:55:35.342Z,19.00
2018-09-13T21:58:04.531Z,18.90
2018-09-13T22:00:33.865Z,18.90
2018-09-13T22:03:02.669Z,19.00
2018-09-13T22:05:31.505Z,18.90
2018-09-13T22:08:00.456Z,18.90
2018-09-13T22:10:29.273Z,19.00
2018-09-13T22:12:58.131Z,19.00
2018-09-13T22:15:27.041Z,19.00
2018-09-13T22:17:55.843Z,19.00
2018-09-13T22:20:24.661Z,19.00
2018-09-13T22:22:53.478Z,19.00
2018-09-13T22:25:22.274Z,18.90
2018-09-13T22:27:51.072Z,18.90
2018-09-13T22:30:20.317Z,18.90
2018-09-13T22:32:49.118Z,19.00
2018-09-13T22:35:18.030Z,19.00
2018-09-13T22:37:46.826Z,18.90
2018-09-13T22:40:15.634Z,18.90
2018-09-13T22:42:44.426Z,18.90
2018-09-13T22:45:13.220Z,18.90
2018-09-13T22:47:42.014Z,18.90
2018-09-13T22:50:10.868Z,18.90
2018-09-13T22:52:39.942Z,18.90
2018-09-13T22:55:08.743Z,18.80
2018-09-13T22:57:37.524Z,18.80
2018-09-13T23:00:08.195Z,18.80
2018-09-13T23:02:42.367Z,18.80
2018-09-13T23:05:11.209Z,18.80
2018-09-13T23:07:39.975Z,18.80
2018-09-13T23:10:08.777Z,18.80
2018-09-13T23:12:37.697Z,18.80
2018-09-13T23:15:08.377Z,18.80
2018-09-13T23:17:37.241Z,18.90
2018-09-13T23:20:06.014Z,18.90
2018-09-13T23:22:34.954Z,18.90
2018-09-13T23:25:03.905Z,18.90
2018-09-13T23:27:32.719Z,18.90
2018-09-13T23:30:01.554Z,18.90
2018-09-13T23:32:30.370Z,18.90
2018-09-13T23:34:59.338Z,18.90
2018-09-13T23:37:28.154Z,18.90
2018-09-13T23:39:57.147Z,18.90
2018-09-13T23:42:25.789Z,18.90
2018-09-13T23:44:54.582Z,18.90
2018-09-13T23:47:23.381Z,18.90
2018-09-13T23:49:52.189Z,18.90
2018-09-13T23:52:21.021Z,18.90
2018-09-13T23:54:49.827Z,18.90
2018-09-13T23:57:18.969Z,18.90
2018-09-13T23:59:47.784Z,18.90
